sensor_id;sensor_type;location;lat;lon;timestamp;pressure;altitude;pressure_sealevel;temperature;humidity
22930;BME280;11630;42.660;23.292;2024-02-15T00:02:17;68050.58;;;4.63;99.96
22930;BME280;11630;42.660;23.292;2024-02-15T00:04:48;68058.95;;;4.67;99.80
22930;BME280;11630;42.660;23.292;2024-02-15T00:07:19;68049.48;;;4.60;99.66
22930;BME280;11630;42.660;23.292;2024-02-15T00:09:49;68043.28;;;4.58;100.00
22930;BME280;11630;42.660;23.292;2024-02-15T00:12:20;68048.41;;;4.61;100.00
22930;BME280;11630;42.660;23.292;2024-02-15T00:14:50;68051.38;;;4.60;99.11
22930;BME280;11630;42.660;23.292;2024-02-15T00:17:21;68053.01;;;4.64;99.90
22930;BME280;11630;42.660;23.292;2024-02-15T00:19:52;68047.87;;;4.58;99.65
22930;BME280;11630;42.660;23.292;2024-02-15T00:22:21;68048.90;;;4.54;99.62
22930;BME280;11630;42.660;23.292;2024-02-15T00:24:51;68050.83;;;4.60;99.83
22930;BME280;11630;42.660;23.292;2024-02-15T00:27:21;68048.13;;;4.57;99.38
22930;BME280;11630;42.660;23.292;2024-02-15T00:29:52;68057.61;;;4.67;99.45
22930;BME280;11630;42.660;23.292;2024-02-15T00:32:23;68062.49;;;4.74;99.45
22930;BME280;11630;42.660;23.292;2024-02-15T00:34:53;68058.97;;;4.70;97.98
22930;BME280;11630;42.660;23.292;2024-02-15T00:37:24;68061.09;;;4.67;98.75
22930;BME280;11630;42.660;23.292;2024-02-15T00:39:55;68049.48;;;4.60;99.28
22930;BME280;11630;42.660;23.292;2024-02-15T00:42:26;68051.64;;;4.59;98.75
22930;BME280;11630;42.660;23.292;2024-02-15T00:44:57;68041.92;;;4.55;98.75
22930;BME280;11630;42.660;23.292;2024-02-15T00:47:27;68040.03;;;4.53;99.06
22930;BME280;11630;42.660;23.292;2024-02-15T00:49:58;68043.01;;;4.56;98.51
22930;BME280;11630;42.660;23.292;2024-02-15T00:52:29;68052.19;;;4.62;99.30
22930;BME280;11630;42.660;23.292;2024-02-15T00:55:00;68056.52;;;4.66;99.08
22930;BME280;11630;42.660;23.292;2024-02-15T00:57:30;68071.41;;;4.81;98.44
22930;BME280;11630;42.660;23.292;2024-02-15T01:00:01;68071.67;;;4.80;97.65
22930;BME280;11630;42.660;23.292;2024-02-15T01:02:32;68063.02;;;4.72;98.15
22930;BME280;11630;42.660;23.292;2024-02-15T01:05:04;68044.37;;;4.59;98.43
22930;BME280;11630;42.660;23.292;2024-02-15T01:07:34;68056.55;;;4.71;98.11
22930;BME280;11630;42.660;23.292;2024-02-15T01:10:09;68049.50;;;4.62;98.04
22930;BME280;11630;42.660;23.292;2024-02-15T01:12:38;68049.73;;;4.56;98.40
22930;BME280;11630;42.660;23.292;2024-02-15T01:15:10;68061.10;;;4.69;98.13
22930;BME280;11630;42.660;23.292;2024-02-15T01:17:41;68053.28;;;4.66;97.74
22930;BME280;11630;42.660;23.292;2024-02-15T01:20:13;68040.88;;;4.57;97.65
22930;BME280;11630;42.660;23.292;2024-02-15T01:22:44;68040.30;;;4.52;98.39
22930;BME280;11630;42.660;23.292;2024-02-15T01:25:14;68032.46;;;4.46;98.25
22930;BME280;11630;42.660;23.292;2024-02-15T01:27:44;68030.80;;;4.39;98.50
22930;BME280;11630;42.660;23.292;2024-02-15T01:30:15;68035.70;;;4.49;98.93
22930;BME280;11630;42.660;23.292;2024-02-15T01:32:45;68028.13;;;4.42;99.17
22930;BME280;11630;42.660;23.292;2024-02-15T01:35:16;68037.34;;;4.53;99.14
22930;BME280;11630;42.660;23.292;2024-02-15T01:37:47;68041.89;;;4.51;98.82
22930;BME280;11630;42.660;23.292;2024-02-15T01:40:18;68046.00;;;4.60;98.82
22930;BME280;11630;42.660;23.292;2024-02-15T01:42:48;68042.44;;;4.53;98.52
22930;BME280;11630;42.660;23.292;2024-02-15T01:45:19;68047.34;;;4.60;98.77
22930;BME280;11630;42.660;23.292;2024-02-15T01:47:51;68041.89;;;4.51;98.51
22930;BME280;11630;42.660;23.292;2024-02-15T01:50:22;68041.92;;;4.55;98.56
22930;BME280;11630;42.660;23.292;2024-02-15T01:52:55;68030.54;;;4.40;98.97
22930;BME280;11630;42.660;23.292;2024-02-15T01:55:27;68029.20;;;4.43;98.62
22930;BME280;11630;42.660;23.292;2024-02-15T01:57:57;68028.94;;;4.41;99.30
22930;BME280;11630;42.660;23.292;2024-02-15T02:00:29;68029.20;;;4.43;98.66
22930;BME280;11630;42.660;23.292;2024-02-15T02:03:01;68035.70;;;4.49;99.68
22930;BME280;11630;42.660;23.292;2024-02-15T02:05:32;68035.17;;;4.51;99.04
22930;BME280;11630;42.660;23.292;2024-02-15T02:08:03;68030.28;;;4.41;99.30
22930;BME280;11630;42.660;23.292;2024-02-15T02:10:36;68041.63;;;4.49;99.00
22930;BME280;11630;42.660;23.292;2024-02-15T02:13:04;68045.97;;;4.58;98.87
22930;BME280;11630;42.660;23.292;2024-02-15T02:15:34;68033.23;;;4.43;98.46
22930;BME280;11630;42.660;23.292;2024-02-15T02:18:04;68021.89;;;4.35;99.35
22930;BME280;11630;42.660;23.292;2024-02-15T02:20:35;68020.56;;;4.37;99.40
22930;BME280;11630;42.660;23.292;2024-02-15T02:23:18;68031.63;;;4.41;99.52
22930;BME280;11630;42.660;23.292;2024-02-15T02:25:39;68022.14;;;4.31;100.00
22930;BME280;11630;42.660;23.292;2024-02-15T02:28:14;68019.21;;;4.35;100.00
22930;BME280;11630;42.660;23.292;2024-02-15T02:30:44;68024.08;;;4.39;99.87
22930;BME280;11630;42.660;23.292;2024-02-15T02:33:15;68019.18;;;4.30;99.59
22930;BME280;11630;42.660;23.292;2024-02-15T02:35:46;68011.90;;;4.27;99.38
22930;BME280;11630;42.660;23.292;2024-02-15T02:38:16;68012.20;;;4.31;98.81
22930;BME280;11630;42.660;23.292;2024-02-15T02:40:47;68024.61;;;4.40;99.69
22930;BME280;11630;42.660;23.292;2024-02-15T02:43:17;68026.78;;;4.42;99.14
22930;BME280;11630;42.660;23.292;2024-02-15T02:45:51;68018.11;;;4.31;99.15
22930;BME280;11630;42.660;23.292;2024-02-15T02:48:21;68016.50;;;4.30;99.54
22930;BME280;11630;42.660;23.292;2024-02-15T02:50:51;68022.98;;;4.36;99.22
22930;BME280;11630;42.660;23.292;2024-02-15T02:53:22;68035.44;;;4.50;99.01
22930;BME280;11630;42.660;23.292;2024-02-15T02:55:53;68024.34;;;4.38;98.93
22930;BME280;11630;42.660;23.292;2024-02-15T02:58:24;68019.47;;;4.34;98.80
22930;BME280;11630;42.660;23.292;2024-02-15T03:00:57;68001.35;;;4.16;99.83
22930;BME280;11630;42.660;23.292;2024-02-15T03:03:27;68019.16;;;4.27;99.70
22930;BME280;11630;42.660;23.292;2024-02-15T03:05:58;67999.45;;;4.15;100.00
22930;BME280;11630;42.660;23.292;2024-02-15T03:08:29;67995.41;;;4.10;100.00
22930;BME280;11630;42.660;23.292;2024-02-15T03:11:00;67994.33;;;4.12;100.00
22930;BME280;11630;42.660;23.292;2024-02-15T03:13:30;68012.69;;;4.24;100.00
22930;BME280;11630;42.660;23.292;2024-02-15T03:16:02;68011.63;;;4.25;100.00
22930;BME280;11630;42.660;23.292;2024-02-15T03:18:32;68028.94;;;4.41;100.00
22930;BME280;11630;42.660;23.292;2024-02-15T03:21:02;68035.16;;;4.48;100.00
22930;BME280;11630;42.660;23.292;2024-02-15T03:23:34;68029.70;;;4.36;99.69
22930;BME280;11630;42.660;23.292;2024-02-15T03:26:07;68027.30;;;4.40;99.74
22930;BME280;11630;42.660;23.292;2024-02-15T03:28:36;68019.73;;;4.33;100.00
22930;BME280;11630;42.660;23.292;2024-02-15T03:31:07;68019.21;;;4.35;100.00
22930;BME280;11630;42.660;23.292;2024-02-15T03:33:37;67996.19;;;4.10;100.00
22930;BME280;11630;42.660;23.292;2024-02-15T03:36:08;68008.38;;;4.22;100.00
22930;BME280;11630;42.660;23.292;2024-02-15T03:38:39;68030.30;;;4.44;100.00
22930;BME280;11630;42.660;23.292;2024-02-15T03:41:10;68041.66;;;4.56;99.85
22930;BME280;11630;42.660;23.292;2024-02-15T03:43:40;68043.83;;;4.58;98.62
22930;BME280;11630;42.660;23.292;2024-02-15T03:46:11;68047.61;;;4.59;98.84
22930;BME280;11630;42.660;23.292;2024-02-15T03:48:43;68056.81;;;4.70;98.89
22930;BME280;11630;42.660;23.292;2024-02-15T03:51:17;68073.55;;;4.81;98.04
22930;BME280;11630;42.660;23.292;2024-02-15T03:53:50;68096.30;;;5.04;97.84
22930;BME280;11630;42.660;23.292;2024-02-15T03:56:22;68078.98;;;4.88;98.37
22930;BME280;11630;42.660;23.292;2024-02-15T03:58:55;68029.77;;;4.46;97.54
22930;BME280;11630;42.660;23.292;2024-02-15T04:01:25;68010.28;;;4.25;99.13
22930;BME280;11630;42.660;23.292;2024-02-15T04:03:56;68026.77;;;4.39;99.53
22930;BME280;11630;42.660;23.292;2024-02-15T04:06:27;68018.64;;;4.32;99.85
22930;BME280;11630;42.660;23.292;2024-02-15T04:08:58;68033.25;;;4.45;99.89
22930;BME280;11630;42.660;23.292;2024-02-15T04:11:28;68027.58;;;4.39;99.20
22930;BME280;11630;42.660;23.292;2024-02-15T04:13:59;68008.13;;;4.26;100.00
22930;BME280;11630;42.660;23.292;2024-02-15T04:16:29;67995.38;;;4.08;100.00
22930;BME280;11630;42.660;23.292;2024-02-15T04:18:59;67988.94;;;4.07;100.00
22930;BME280;11630;42.660;23.292;2024-02-15T04:21:30;67977.58;;;3.96;100.00
22930;BME280;11630;42.660;23.292;2024-02-15T04:24:01;67978.63;;;3.95;100.00
22930;BME280;11630;42.660;23.292;2024-02-15T04:26:32;67989.45;;;4.05;100.00
22930;BME280;11630;42.660;23.292;2024-02-15T04:29:03;67975.13;;;3.90;100.00
22930;BME280;11630;42.660;23.292;2024-02-15T04:31:34;67967.02;;;3.85;100.00
22930;BME280;11630;42.660;23.292;2024-02-15T04:34:04;67962.95;;;3.78;100.00
22930;BME280;11630;42.660;23.292;2024-02-15T04:36:35;67943.51;;;3.65;100.00
22930;BME280;11630;42.660;23.292;2024-02-15T04:39:06;67954.59;;;3.77;100.00
22930;BME280;11630;42.660;23.292;2024-02-15T04:41:37;67950.02;;;3.71;100.00
22930;BME280;11630;42.660;23.292;2024-02-15T04:44:07;67946.50;;;3.69;100.00
22930;BME280;11630;42.660;23.292;2024-02-15T04:46:38;67949.19;;;3.69;100.00
22930;BME280;11630;42.660;23.292;2024-02-15T04:49:09;67950.78;;;3.68;100.00
22930;BME280;11630;42.660;23.292;2024-02-15T04:51:40;67940.53;;;3.61;100.00
22930;BME280;11630;42.660;23.292;2024-02-15T04:54:11;67949.44;;;3.68;100.00
22930;BME280;11630;42.660;23.292;2024-02-15T04:56:42;67945.39;;;3.63;100.00
22930;BME280;11630;42.660;23.292;2024-02-15T04:59:13;67943.20;;;3.59;100.00
22930;BME280;11630;42.660;23.292;2024-02-15T05:01:46;67948.93;;;3.70;100.00
22930;BME280;11630;42.660;23.292;2024-02-15T05:04:17;67949.20;;;3.72;100.00
22930;BME280;11630;42.660;23.292;2024-02-15T05:06:47;67947.02;;;3.67;100.00
22930;BME280;11630;42.660;23.292;2024-02-15T05:09:19;67959.69;;;3.75;100.00
22930;BME280;11630;42.660;23.292;2024-02-15T05:11:50;67943.78;;;3.64;100.00
22930;BME280;11630;42.660;23.292;2024-02-15T05:14:21;67945.39;;;3.63;100.00
22930;BME280;11630;42.660;23.292;2024-02-15T05:16:52;67920.30;;;3.46;100.00
22930;BME280;11630;42.660;23.292;2024-02-15T05:19:23;67928.13;;;3.52;100.00
22930;BME280;11630;42.660;23.292;2024-02-15T05:21:54;67927.03;;;3.51;100.00
22930;BME280;11630;42.660;23.292;2024-02-15T05:24:25;67939.16;;;3.56;100.00
22930;BME280;11630;42.660;23.292;2024-02-15T05:26:56;67947.02;;;3.67;100.00
22930;BME280;11630;42.660;23.292;2024-02-15T05:29:26;67964.06;;;3.84;100.00
22930;BME280;11630;42.660;23.292;2024-02-15T05:31:58;67938.63;;;3.58;100.00
22930;BME280;11630;42.660;23.292;2024-02-15T05:34:29;67940.52;;;3.59;100.00
22930;BME280;11630;42.660;23.292;2024-02-15T05:37:00;67951.09;;;3.72;100.00
22930;BME280;11630;42.660;23.292;2024-02-15T05:39:31;67944.05;;;3.63;100.00
22930;BME280;11630;42.660;23.292;2024-02-15T05:42:01;67948.60;;;3.64;100.00
22930;BME280;11630;42.660;23.292;2024-02-15T05:44:32;67941.05;;;3.59;100.00
22930;BME280;11630;42.660;23.292;2024-02-15T05:47:02;67938.37;;;3.59;100.00
22930;BME280;11630;42.660;23.292;2024-02-15T05:49:33;67946.47;;;3.64;100.00
22930;BME280;11630;42.660;23.292;2024-02-15T05:52:07;67954.58;;;3.74;100.00
22930;BME280;11630;42.660;23.292;2024-02-15T05:54:38;67933.23;;;3.53;100.00
22930;BME280;11630;42.660;23.292;2024-02-15T05:57:09;67940.52;;;3.59;100.00
22930;BME280;11630;42.660;23.292;2024-02-15T05:59:40;67962.15;;;3.81;100.00
22930;BME280;11630;42.660;23.292;2024-02-15T06:02:11;67965.13;;;3.82;100.00
22930;BME280;11630;42.660;23.292;2024-02-15T06:04:41;67945.16;;;3.69;100.00
22930;BME280;11630;42.660;23.292;2024-02-15T06:07:12;67955.41;;;3.76;100.00
22930;BME280;11630;42.660;23.292;2024-02-15T06:09:43;67949.45;;;3.71;100.00
22930;BME280;11630;42.660;23.292;2024-02-15T06:12:14;67953.21;;;3.69;100.00
22930;BME280;11630;42.660;23.292;2024-02-15T06:14:45;67936.73;;;3.55;100.00
22930;BME280;11630;42.660;23.292;2024-02-15T06:17:16;67948.10;;;3.68;100.00
22930;BME280;11630;42.660;23.292;2024-02-15T06:19:47;67946.74;;;3.66;100.00
22930;BME280;11630;42.660;23.292;2024-02-15T06:22:17;67958.91;;;3.76;100.00
22930;BME280;11630;42.660;23.292;2024-02-15T06:24:48;67944.84;;;3.63;100.00
22930;BME280;11630;42.660;23.292;2024-02-15T06:27:19;67945.42;;;3.68;100.00
22930;BME280;11630;42.660;23.292;2024-02-15T06:29:50;67961.60;;;3.78;100.00
22930;BME280;11630;42.660;23.292;2024-02-15T06:32:37;67964.59;;;3.84;100.00
22930;BME280;11630;42.660;23.292;2024-02-15T06:35:25;67972.97;;;3.91;100.00
22930;BME280;11630;42.660;23.292;2024-02-15T06:38:12;67981.07;;;3.98;100.00
22930;BME280;11630;42.660;23.292;2024-02-15T06:40:58;67996.47;;;4.09;100.00
22930;BME280;11630;42.660;23.292;2024-02-15T06:43:29;68005.14;;;4.19;100.00
22930;BME280;11630;42.660;23.292;2024-02-15T06:46:00;67983.25;;;4.03;100.00
22930;BME280;11630;42.660;23.292;2024-02-15T06:48:31;67978.38;;;3.98;100.00
22930;BME280;11630;42.660;23.292;2024-02-15T06:51:03;67975.39;;;3.92;100.00
22930;BME280;11630;42.660;23.292;2024-02-15T06:53:34;67964.83;;;3.81;100.00
22930;BME280;11630;42.660;23.292;2024-02-15T06:56:04;68004.07;;;4.21;100.00
22930;BME280;11630;42.660;23.292;2024-02-15T06:58:35;67986.20;;;4.02;100.00
22930;BME280;11630;42.660;23.292;2024-02-15T07:01:06;68002.13;;;4.13;100.00
22930;BME280;11630;42.660;23.292;2024-02-15T07:03:37;67988.38;;;4.06;100.00
22930;BME280;11630;42.660;23.292;2024-02-15T07:06:07;67984.59;;;4.03;100.00
22930;BME280;11630;42.660;23.292;2024-02-15T07:08:39;68015.69;;;4.30;100.00
22930;BME280;11630;42.660;23.292;2024-02-15T07:11:10;68015.95;;;4.32;100.00
22930;BME280;11630;42.660;23.292;2024-02-15T07:13:40;67988.67;;;4.08;100.00
22930;BME280;11630;42.660;23.292;2024-02-15T07:16:12;68017.04;;;4.33;100.00
22930;BME280;11630;42.660;23.292;2024-02-15T07:18:45;68029.73;;;4.43;99.82
22930;BME280;11630;42.660;23.292;2024-02-15T07:21:15;68057.63;;;4.70;98.77
22930;BME280;11630;42.660;23.292;2024-02-15T07:23:45;68062.49;;;4.74;96.26
22930;BME280;11630;42.660;23.292;2024-02-15T07:26:17;68077.33;;;4.84;95.55
22930;BME280;11630;42.660;23.292;2024-02-15T07:28:47;68097.91;;;5.03;94.30
22930;BME280;11630;42.660;23.292;2024-02-15T07:31:19;68141.50;;;5.44;91.76
22930;BME280;11630;42.660;23.292;2024-02-15T07:33:51;68143.38;;;5.45;89.50
22930;BME280;11630;42.660;23.292;2024-02-15T07:36:22;68158.53;;;5.59;87.85
22930;BME280;11630;42.660;23.292;2024-02-15T07:38:54;68177.26;;;5.80;86.05
22930;BME280;11630;42.660;23.292;2024-02-15T07:41:25;68207.30;;;6.04;84.28
22930;BME280;11630;42.660;23.292;2024-02-15T07:43:56;68243.03;;;6.31;83.59
22930;BME280;11630;42.660;23.292;2024-02-15T07:46:27;68255.55;;;6.50;80.97
22930;BME280;11630;42.660;23.292;2024-02-15T07:48:58;68284.79;;;6.72;79.90
22930;BME280;11630;42.660;23.292;2024-02-15T07:51:28;68255.55;;;6.50;80.17
22930;BME280;11630;42.660;23.292;2024-02-15T07:54:01;68248.23;;;6.47;78.83
22930;BME280;11630;42.660;23.292;2024-02-15T07:56:32;68278.05;;;6.72;77.28
22930;BME280;11630;42.660;23.292;2024-02-15T07:59:03;68264.22;;;6.58;77.51
22930;BME280;11630;42.660;23.292;2024-02-15T08:01:34;68246.88;;;6.42;77.09
22930;BME280;11630;42.660;23.292;2024-02-15T08:04:05;68237.38;;;6.32;78.94
22930;BME280;11630;42.660;23.292;2024-02-15T08:06:36;68310.31;;;7.03;76.42
22930;BME280;11630;42.660;23.292;2024-02-15T08:09:06;68312.20;;;7.06;74.50
22930;BME280;11630;42.660;23.292;2024-02-15T08:11:38;68370.77;;;7.57;73.74
22930;BME280;11630;42.660;23.292;2024-02-15T08:14:08;68416.08;;;8.02;70.80
22930;BME280;11630;42.660;23.292;2024-02-15T08:16:43;68381.90;;;7.68;70.09
22930;BME280;11630;42.660;23.292;2024-02-15T08:19:14;68422.84;;;8.02;68.92
22930;BME280;11630;42.660;23.292;2024-02-15T08:21:49;68445.13;;;8.23;68.09
22930;BME280;11630;42.660;23.292;2024-02-15T08:24:22;68430.70;;;8.08;68.48
22930;BME280;11630;42.660;23.292;2024-02-15T08:26:53;68398.44;;;7.80;69.32
22930;BME280;11630;42.660;23.292;2024-02-15T08:29:25;68397.88;;;7.79;69.25
22930;BME280;11630;42.660;23.292;2024-02-15T08:31:55;68347.17;;;7.34;70.82
22930;BME280;11630;42.660;23.292;2024-02-15T08:34:26;68399.52;;;7.83;69.36
22930;BME280;11630;42.660;23.292;2024-02-15T08:36:57;68398.42;;;7.77;69.11
22930;BME280;11630;42.660;23.292;2024-02-15T08:39:27;68463.30;;;8.38;67.76
22930;BME280;11630;42.660;23.292;2024-02-15T08:41:59;68517.32;;;8.86;65.46
22930;BME280;11630;42.660;23.292;2024-02-15T08:44:29;68551.30;;;9.21;63.90
22930;BME280;11630;42.660;23.292;2024-02-15T08:47:00;68460.31;;;8.34;65.55
22930;BME280;11630;42.660;23.292;2024-02-15T08:49:31;68429.91;;;8.09;66.80
22930;BME280;11630;42.660;23.292;2024-02-15T08:52:02;68533.61;;;8.99;64.51
22930;BME280;11630;42.660;23.292;2024-02-15T08:54:33;68593.40;;;9.58;62.68
22930;BME280;11630;42.660;23.292;2024-02-15T08:57:04;68600.73;;;9.61;62.34
22930;BME280;11630;42.660;23.292;2024-02-15T08:59:34;68540.13;;;9.05;62.76
22930;BME280;11630;42.660;23.292;2024-02-15T09:02:06;68542.58;;;9.11;62.62
22930;BME280;11630;42.660;23.292;2024-02-15T09:04:37;68576.00;;;9.42;62.71
22930;BME280;11630;42.660;23.292;2024-02-15T09:07:07;68652.94;;;10.14;60.14
22930;BME280;11630;42.660;23.292;2024-02-15T09:09:38;68595.03;;;9.62;60.89
22930;BME280;11630;42.660;23.292;2024-02-15T09:12:09;68508.92;;;8.80;61.70
22930;BME280;11630;42.660;23.292;2024-02-15T09:14:40;68536.33;;;9.04;61.31
22930;BME280;11630;42.660;23.292;2024-02-15T09:17:11;68540.96;;;9.12;61.40
22930;BME280;11630;42.660;23.292;2024-02-15T09:19:48;68587.16;;;9.56;61.19
22930;BME280;11630;42.660;23.292;2024-02-15T09:22:19;68620.86;;;9.87;60.28
22930;BME280;11630;42.660;23.292;2024-02-15T09:24:49;68682.85;;;10.39;59.50
22930;BME280;11630;42.660;23.292;2024-02-15T09:27:20;68701.62;;;10.55;59.17
22930;BME280;11630;42.660;23.292;2024-02-15T09:29:51;68707.61;;;10.63;59.36
22930;BME280;11630;42.660;23.292;2024-02-15T09:32:22;68685.30;;;10.47;59.39
22930;BME280;11630;42.660;23.292;2024-02-15T09:34:53;68775.36;;;11.23;57.75
22930;BME280;11630;42.660;23.292;2024-02-15T09:37:24;68913.70;;;12.49;54.61
22930;BME280;11630;42.660;23.292;2024-02-15T09:39:55;68872.56;;;12.13;54.06
22930;BME280;11630;42.660;23.292;2024-02-15T09:42:26;68744.88;;;10.98;55.25
22930;BME280;11630;42.660;23.292;2024-02-15T09:44:57;68858.68;;;11.97;54.01
22930;BME280;11630;42.660;23.292;2024-02-15T09:47:31;68719.56;;;10.73;55.98
22930;BME280;11630;42.660;23.292;2024-02-15T09:50:01;68816.47;;;11.62;55.79
22930;BME280;11630;42.660;23.292;2024-02-15T09:52:32;68673.34;;;10.34;56.22
22930;BME280;11630;42.660;23.292;2024-02-15T09:55:03;68659.75;;;10.16;57.32
22930;BME280;11630;42.660;23.292;2024-02-15T09:57:35;68636.91;;;9.98;57.58
22930;BME280;11630;42.660;23.292;2024-02-15T10:00:07;68726.91;;;10.81;56.41
22930;BME280;11630;42.660;23.292;2024-02-15T10:02:40;68782.16;;;11.36;55.25
22930;BME280;11630;42.660;23.292;2024-02-15T10:05:10;68865.22;;;12.03;53.46
22930;BME280;11630;42.660;23.292;2024-02-15T10:07:43;68808.04;;;11.53;54.21
22930;BME280;11630;42.660;23.292;2024-02-15T10:10:23;68799.84;;;11.48;54.17
22930;BME280;11630;42.660;23.292;2024-02-15T10:12:57;68887.27;;;12.19;53.45
22930;BME280;11630;42.660;23.292;2024-02-15T10:18:02;68704.07;;;10.61;54.99
22930;BME280;11630;42.660;23.292;2024-02-15T10:20:33;68834.72;;;11.80;53.66
22930;BME280;11630;42.660;23.292;2024-02-15T10:23:09;68759.85;;;11.15;53.72
22930;BME280;11630;42.660;23.292;2024-02-15T10:25:37;68812.13;;;11.53;53.32
22930;BME280;11630;42.660;23.292;2024-02-15T10:28:11;68748.96;;;11.00;54.35
22930;BME280;11630;42.660;23.292;2024-02-15T10:30:43;68922.41;;;12.57;51.89
22930;BME280;11630;42.660;23.292;2024-02-15T10:33:27;68978.05;;;13.08;50.63
22930;BME280;11630;42.660;23.292;2024-02-15T10:36:11;68952.13;;;12.83;49.73
22930;BME280;11630;42.660;23.292;2024-02-15T10:38:42;68835.81;;;11.83;51.48
22930;BME280;11630;42.660;23.292;2024-02-15T10:41:13;68839.06;;;11.84;52.31
22930;BME280;11630;42.660;23.292;2024-02-15T10:43:45;68888.35;;;12.27;52.57
22930;BME280;11630;42.660;23.292;2024-02-15T10:46:18;69013.74;;;13.44;51.05
22930;BME280;11630;42.660;23.292;2024-02-15T10:48:49;69091.20;;;14.10;48.45
22930;BME280;11630;42.660;23.292;2024-02-15T10:51:21;68966.58;;;12.95;50.86
22930;BME280;11630;42.660;23.292;2024-02-15T10:53:57;68988.94;;;13.15;49.25
22930;BME280;11630;42.660;23.292;2024-02-15T10:56:28;68957.03;;;12.85;49.98
22930;BME280;11630;42.660;23.292;2024-02-15T10:59:08;68921.88;;;12.57;50.79
22930;BME280;11630;42.660;23.292;2024-02-15T11:01:34;68830.64;;;11.75;52.06
22930;BME280;11630;42.660;23.292;2024-02-15T11:04:07;68908.52;;;12.41;51.73
22930;BME280;11630;42.660;23.292;2024-02-15T11:06:39;68902.53;;;12.40;50.67
22930;BME280;11630;42.660;23.292;2024-02-15T11:09:11;68912.06;;;12.45;50.96
22930;BME280;11630;42.660;23.292;2024-02-15T11:11:42;68984.85;;;13.13;50.12
22930;BME280;11630;42.660;23.292;2024-02-15T11:16:55;68912.88;;;12.52;49.91
22930;BME280;11630;42.660;23.292;2024-02-15T11:22:14;69087.94;;;14.07;47.98
22930;BME280;11630;42.660;23.292;2024-02-15T11:24:52;69071.02;;;13.91;46.76
22930;BME280;11630;42.660;23.292;2024-02-15T11:27:30;69174.20;;;14.83;44.89
22930;BME280;11630;42.660;23.292;2024-02-15T11:30:01;69219.25;;;15.23;44.21
22930;BME280;11630;42.660;23.292;2024-02-15T11:32:47;69077.57;;;14.02;44.88
22930;BME280;11630;42.660;23.292;2024-02-15T11:35:25;69006.12;;;13.32;46.42
22930;BME280;11630;42.660;23.292;2024-02-15T11:37:58;69016.75;;;13.41;46.74
22930;BME280;11630;42.660;23.292;2024-02-15T11:43:45;69038.83;;;13.57;45.72
22930;BME280;11630;42.660;23.292;2024-02-15T11:46:20;69112.26;;;14.23;45.22
22930;BME280;11630;42.660;23.292;2024-02-15T11:48:52;69023.84;;;13.47;46.27
22930;BME280;11630;42.660;23.292;2024-02-15T11:54:06;69170.09;;;14.85;44.48
22930;BME280;11630;42.660;23.292;2024-02-15T11:56:53;69245.20;;;15.52;42.94
22930;BME280;11630;42.660;23.292;2024-02-15T11:59:25;69322.29;;;16.15;41.42
22930;BME280;11630;42.660;23.292;2024-02-15T12:01:59;69213.78;;;15.23;42.13
22930;BME280;11630;42.660;23.292;2024-02-15T12:04:44;69155.34;;;14.72;42.87
22930;BME280;11630;42.660;23.292;2024-02-15T12:07:19;69016.47;;;13.47;45.39
22930;BME280;11630;42.660;23.292;2024-02-15T12:10:06;69010.48;;;13.34;45.67
22930;BME280;11630;42.660;23.292;2024-02-15T12:12:57;69030.64;;;13.57;46.06
22930;BME280;11630;42.660;23.292;2024-02-15T12:16:06;69069.64;;;13.94;45.70
22930;BME280;11630;42.660;23.292;2024-02-15T12:18:32;69255.08;;;15.51;43.62
22930;BME280;11630;42.660;23.292;2024-02-15T12:21:19;69288.64;;;15.96;41.99
22930;BME280;11630;42.660;23.292;2024-02-15T12:23:44;69272.84;;;15.69;41.79
22930;BME280;11630;42.660;23.292;2024-02-15T12:26:14;69202.06;;;15.06;42.46
22930;BME280;11630;42.660;23.292;2024-02-15T12:28:49;69089.58;;;14.13;44.11
22930;BME280;11630;42.660;23.292;2024-02-15T12:31:16;69079.76;;;14.04;44.38
22930;BME280;11630;42.660;23.292;2024-02-15T12:33:58;69095.04;;;14.16;44.30
22930;BME280;11630;42.660;23.292;2024-02-15T12:36:19;69008.84;;;13.32;45.50
22930;BME280;11630;42.660;23.292;2024-02-15T12:39:01;69030.65;;;13.55;45.79
22930;BME280;11630;42.660;23.292;2024-02-15T12:41:31;68955.67;;;12.85;47.15
22930;BME280;11630;42.660;23.292;2024-02-15T12:44:02;68952.66;;;12.81;47.90
22930;BME280;11630;42.660;23.292;2024-02-15T12:46:36;69019.20;;;13.42;47.49
22930;BME280;11630;42.660;23.292;2024-02-15T12:49:28;69116.60;;;14.39;45.54
22930;BME280;11630;42.660;23.292;2024-02-15T12:55:13;68864.94;;;12.04;48.71
22930;BME280;11630;42.660;23.292;2024-02-15T12:57:55;68895.18;;;12.30;49.03
22930;BME280;11630;42.660;23.292;2024-02-15T13:00:27;68928.41;;;12.55;48.74
22930;BME280;11630;42.660;23.292;2024-02-15T13:02:59;68909.06;;;12.46;49.34
22930;BME280;11630;42.660;23.292;2024-02-15T13:05:30;68977.22;;;13.08;48.96
22930;BME280;11630;42.660;23.292;2024-02-15T13:08:00;68867.13;;;12.11;50.59
22930;BME280;11630;42.660;23.292;2024-02-15T13:10:32;68912.34;;;12.49;50.17
22930;BME280;11630;42.660;23.292;2024-02-15T13:13:02;68916.42;;;12.57;49.78
22930;BME280;11630;42.660;23.292;2024-02-15T13:15:33;68828.72;;;11.72;50.86
22930;BME280;11630;42.660;23.292;2024-02-15T13:18:04;68789.23;;;11.35;52.94
22930;BME280;11630;42.660;23.292;2024-02-15T13:20:43;68766.09;;;11.17;52.84
22930;BME280;11630;42.660;23.292;2024-02-15T13:23:10;68760.92;;;11.11;53.28
22930;BME280;11630;42.660;23.292;2024-02-15T13:25:43;68715.22;;;10.72;54.83
22930;BME280;11630;42.660;23.292;2024-02-15T13:28:13;68720.13;;;10.72;54.73
22930;BME280;11630;42.660;23.292;2024-02-15T13:30:45;68744.59;;;10.91;54.52
22930;BME280;11630;42.660;23.292;2024-02-15T13:33:15;68716.58;;;10.72;54.98
22930;BME280;11630;42.660;23.292;2024-02-15T13:35:46;68733.46;;;10.90;55.11
22930;BME280;11630;42.660;23.292;2024-02-15T13:38:17;68717.41;;;10.74;55.23